Time;durP1;ratioP1;P1;durP2;ratioP2;P2;SDS_P1;SDS_P2;PMS_P1;PMS_P2;Temp;Humidity;BMP_temperature;BMP_pressure;BME280_temperature;BME280_humidity;BME280_pressure;Samples;Min_cycle;Max_cycle;Signal;HPM_P1;HPM_P2
2020/12/23 00:01:15;;;;;;;6.30;1.70;;;6.50;99.90;;;;;;4971525;28;20182;-49
2020/12/23 00:03:41;;;;;;;7.57;2.43;;;6.50;99.90;;;;;;4964650;28;20189;-48
2020/12/23 00:06:06;;;;;;;6.70;1.80;;;6.40;99.90;;;;;;4976325;28;20209;-53
2020/12/23 00:08:35;;;;;;;7.33;1.97;;;6.40;99.90;;;;;;4969804;28;23473;-47
2020/12/23 00:11:01;;;;;;;7.07;2.03;;;6.30;99.90;;;;;;4984443;28;20181;-50
2020/12/23 00:13:26;;;;;;;7.20;1.67;;;6.30;99.90;;;;;;4973425;28;20247;-52
2020/12/23 00:15:52;;;;;;;9.77;2.37;;;6.30;99.90;;;;;;4963946;28;20348;-48
2020/12/23 00:18:17;;;;;;;7.60;1.90;;;6.30;99.90;;;;;;4981052;28;20192;-49
2020/12/23 00:20:43;;;;;;;11.43;2.50;;;6.20;99.90;;;;;;4973174;28;20697;-48
2020/12/23 00:23:08;;;;;;;5.47;1.60;;;6.20;99.90;;;;;;4982407;28;20567;-48
2020/12/23 00:25:34;;;;;;;8.73;2.10;;;6.10;99.90;;;;;;4976450;28;20209;-48
2020/12/23 00:28:00;;;;;;;8.33;2.13;;;6.00;99.90;;;;;;4985174;28;20192;-50
2020/12/23 00:30:25;;;;;;;8.03;2.00;;;6.00;99.90;;;;;;4960973;28;20800;-54
2020/12/23 00:32:51;;;;;;;5.50;1.80;;;6.00;99.90;;;;;;4975486;28;20221;-53
2020/12/23 00:35:16;;;;;;;9.30;2.60;;;5.90;99.90;;;;;;4973958;28;20182;-49
2020/12/23 00:37:42;;;;;;;10.80;1.97;;;5.70;99.90;;;;;;4968581;28;20229;-54
2020/12/23 00:40:07;;;;;;;11.43;1.80;;;5.70;99.90;;;;;;4979479;28;20658;-54
2020/12/23 00:42:33;;;;;;;8.00;1.87;;;5.70;99.90;;;;;;4973712;28;20289;-45
2020/12/23 00:44:58;;;;;;;7.93;1.63;;;5.60;99.90;;;;;;4980002;28;20210;-46
2020/12/23 00:47:25;;;;;;;7.77;1.97;;;5.50;99.90;;;;;;4959639;28;20797;-45
2020/12/23 00:49:50;;;;;;;3.87;1.50;;;5.50;99.90;;;;;;4975051;28;20278;-45
2020/12/23 00:52:15;;;;;;;6.20;1.93;;;5.50;99.90;;;;;;4967221;28;20968;-52
2020/12/23 00:54:41;;;;;;;3.40;1.27;;;5.40;99.90;;;;;;4963658;28;20288;-45
2020/12/23 00:57:07;;;;;;;3.57;1.43;;;5.40;99.90;;;;;;4975608;28;20221;-50
2020/12/23 00:59:32;;;;;;;8.17;1.97;;;5.20;99.90;;;;;;4966132;28;20178;-45
2020/12/23 01:01:59;;;;;;;5.70;1.60;;;5.10;99.90;;;;;;4955340;28;20214;-49
2020/12/23 01:04:25;;;;;;;5.37;2.00;;;5.10;99.90;;;;;;4970768;28;20321;-48
2020/12/23 01:06:50;;;;;;;4.93;1.57;;;5.00;99.90;;;;;;4974286;28;20650;-52
2020/12/23 01:09:16;;;;;;;6.60;1.90;;;5.00;99.90;;;;;;4981113;28;20244;-49
2020/12/23 01:11:41;;;;;;;8.00;1.43;;;5.00;99.90;;;;;;4963981;28;20333;-51
2020/12/23 01:14:07;;;;;;;7.47;1.80;;;5.00;99.90;;;;;;4968784;28;20182;-46
2020/12/23 01:16:32;;;;;;;6.37;2.00;;;4.90;99.90;;;;;;4958929;28;20203;-45
2020/12/23 01:18:58;;;;;;;11.47;2.03;;;4.80;99.90;;;;;;4975547;28;20637;-45
2020/12/23 01:21:23;;;;;;;8.10;1.50;;;4.80;99.90;;;;;;4972254;28;20268;-54
2020/12/23 01:23:48;;;;;;;5.00;1.97;;;4.70;99.90;;;;;;4969338;28;20175;-46
2020/12/23 01:26:16;;;;;;;9.97;1.90;;;4.60;99.90;;;;;;4973461;28;20209;-53
2020/12/23 01:28:44;;;;;;;6.40;1.80;;;4.50;99.90;;;;;;4968104;28;20834;-46
2020/12/23 01:31:10;;;;;;;7.57;1.83;;;4.50;99.90;;;;;;4969433;28;20185;-51
2020/12/23 01:33:35;;;;;;;11.77;2.40;;;4.50;99.90;;;;;;4961846;28;20922;-48
2020/12/23 01:36:01;;;;;;;7.10;1.50;;;4.40;99.90;;;;;;4975348;28;20215;-45
2020/12/23 01:38:26;;;;;;;6.87;1.50;;;4.30;99.90;;;;;;4962892;28;20268;-45
2020/12/23 01:40:56;;;;;;;9.37;1.70;;;4.30;99.90;;;;;;4978670;28;20591;-46
2020/12/23 01:43:22;;;;;;;6.13;2.17;;;4.20;99.90;;;;;;4979515;28;20197;-55
2020/12/23 01:45:47;;;;;;;5.93;1.40;;;4.10;99.90;;;;;;4977988;28;20214;-45
2020/12/23 01:48:18;;;;;;;7.63;2.10;;;4.10;99.90;;;;;;4959900;28;20245;-53
2020/12/23 01:50:44;;;;;;;4.50;1.93;;;4.10;99.90;;;;;;4984785;28;20193;-49
2020/12/23 01:53:10;;;;;;;4.70;1.83;;;4.10;99.90;;;;;;4971133;28;20778;-46
2020/12/23 01:55:36;;;;;;;4.20;1.80;;;4.10;99.90;;;;;;4987125;28;20166;-47
2020/12/23 01:58:02;;;;;;;8.80;1.90;;;4.10;99.90;;;;;;4985081;28;20205;-51
2020/12/23 02:00:27;;;;;;;6.37;1.60;;;4.10;99.90;;;;;;4974407;28;20185;-53
2020/12/23 02:02:56;;;;;;;10.73;2.17;;;4.10;99.90;;;;;;4960037;28;20206;-51
2020/12/23 02:05:21;;;;;;;5.00;1.50;;;4.10;99.90;;;;;;4972774;28;20604;-52
2020/12/23 02:07:48;;;;;;;4.87;1.60;;;4.10;99.90;;;;;;4971266;28;20177;-45
2020/12/23 02:10:14;;;;;;;4.77;1.37;;;4.00;99.90;;;;;;4975606;28;20173;-50
2020/12/23 02:12:40;;;;;;;4.80;1.50;;;3.90;99.90;;;;;;4966800;28;20232;-45
2020/12/23 02:15:10;;;;;;;6.03;1.70;;;3.90;99.90;;;;;;4986300;28;20184;-54
2020/12/23 02:17:36;;;;;;;3.27;1.90;;;3.90;99.90;;;;;;4956084;28;20275;-48
2020/12/23 02:20:05;;;;;;;9.47;1.83;;;3.80;99.90;;;;;;4979880;28;20213;-51
2020/12/23 02:22:31;;;;;;;7.93;2.17;;;3.70;99.90;;;;;;4974999;28;20216;-46
2020/12/23 02:24:56;;;;;;;6.73;2.23;;;3.60;99.90;;;;;;4974161;28;20257;-45
2020/12/23 02:27:24;;;;;;;6.67;1.67;;;3.60;99.90;;;;;;4966775;28;20628;-53
2020/12/23 02:29:51;;;;;;;7.37;1.77;;;3.60;99.90;;;;;;4979069;28;20538;-48
2020/12/23 02:32:17;;;;;;;5.47;2.30;;;3.60;99.90;;;;;;4966599;28;20198;-53
2020/12/23 02:34:44;;;;;;;4.17;1.43;;;3.60;99.90;;;;;;4972469;28;20194;-51
2020/12/23 02:37:10;;;;;;;5.03;1.87;;;3.60;99.90;;;;;;4983364;28;20633;-54
2020/12/23 02:39:37;;;;;;;3.87;1.47;;;3.50;99.90;;;;;;4976711;28;20319;-47
2020/12/23 02:42:03;;;;;;;3.70;2.10;;;3.50;99.90;;;;;;4983350;28;20690;-46
2020/12/23 02:44:29;;;;;;;7.87;2.07;;;3.40;99.90;;;;;;4973798;28;20301;-52
2020/12/23 02:47:04;;;;;;;5.27;1.97;;;3.40;99.90;;;;;;4978130;28;20268;-46
2020/12/23 02:49:30;;;;;;;9.07;3.03;;;3.30;99.90;;;;;;4953245;28;20245;-48
2020/12/23 02:51:56;;;;;;;11.27;3.20;;;3.20;99.90;;;;;;4977002;28;20210;-50
2020/12/23 02:54:22;;;;;;;6.73;2.50;;;3.20;99.90;;;;;;4967012;28;20545;-45
2020/12/23 02:56:48;;;;;;;4.83;1.97;;;3.20;99.90;;;;;;4987926;28;20189;-50
2020/12/23 02:59:14;;;;;;;9.50;2.90;;;3.20;99.90;;;;;;4974786;28;20194;-48
2020/12/23 03:01:39;;;;;;;6.57;2.20;;;3.20;99.90;;;;;;4977277;28;20842;-51
2020/12/23 03:04:05;;;;;;;7.47;2.60;;;3.20;99.90;;;;;;4960856;28;20603;-49
2020/12/23 03:06:32;;;;;;;6.47;2.10;;;3.10;99.90;;;;;;4979337;28;20193;-46
2020/12/23 03:08:57;;;;;;;6.23;1.77;;;3.10;99.90;;;;;;4985683;28;20173;-44
2020/12/23 03:11:23;;;;;;;4.13;1.67;;;3.10;99.90;;;;;;4967433;28;20224;-51
2020/12/23 03:13:48;;;;;;;7.67;3.00;;;3.10;99.90;;;;;;4974937;28;20261;-46
2020/12/23 03:16:14;;;;;;;4.23;2.23;;;3.10;99.90;;;;;;4976446;28;20193;-52
2020/12/23 03:18:40;;;;;;;10.47;2.47;;;3.10;99.90;;;;;;4961193;28;20887;-53
2020/12/23 03:21:06;;;;;;;5.33;2.07;;;3.10;99.90;;;;;;4975503;28;20202;-47
2020/12/23 03:23:32;;;;;;;4.07;2.20;;;3.00;99.90;;;;;;4980602;28;20188;-49
2020/12/23 03:25:58;;;;;;;4.27;1.93;;;2.90;99.90;;;;;;4973762;28;20206;-45
2020/12/23 03:28:23;;;;;;;9.70;2.30;;;3.00;99.90;;;;;;4971113;28;20213;-51
2020/12/23 03:30:48;;;;;;;5.00;2.00;;;2.90;99.90;;;;;;4970705;28;20186;-49
2020/12/23 03:33:14;;;;;;;5.93;2.43;;;2.90;99.90;;;;;;4959304;28;20205;-53
2020/12/23 03:35:39;;;;;;;5.90;2.30;;;2.80;99.90;;;;;;4971836;28;20189;-49
2020/12/23 03:38:05;;;;;;;5.83;2.10;;;2.70;99.90;;;;;;4975755;28;20196;-48
2020/12/23 03:40:30;;;;;;;6.50;2.70;;;2.60;99.90;;;;;;4976570;28;20173;-48
2020/12/23 03:42:56;;;;;;;9.23;2.57;;;2.60;99.90;;;;;;4986062;28;20667;-49
2020/12/23 03:45:21;;;;;;;5.70;2.33;;;2.60;99.90;;;;;;4972042;28;20202;-49
2020/12/23 03:47:47;;;;;;;11.00;2.37;;;2.60;99.90;;;;;;4978306;28;20552;-48
2020/12/23 03:50:12;;;;;;;13.60;2.67;;;2.60;99.90;;;;;;4964627;28;20554;-45
2020/12/23 03:52:38;;;;;;;6.07;2.00;;;2.60;99.90;;;;;;4972162;28;20201;-49
2020/12/23 03:55:03;;;;;;;7.63;2.70;;;2.60;99.90;;;;;;4979603;28;20181;-45
2020/12/23 03:57:29;;;;;;;4.77;2.07;;;2.60;99.90;;;;;;4981149;28;20176;-49
2020/12/23 03:59:54;;;;;;;5.00;2.07;;;2.60;99.90;;;;;;4983506;28;20702;-48
2020/12/23 04:02:19;;;;;;;8.70;2.67;;;2.60;99.90;;;;;;4975304;28;20208;-54
2020/12/23 04:04:45;;;;;;;7.83;2.43;;;2.60;99.90;;;;;;4968951;28;20206;-49
2020/12/23 04:07:11;;;;;;;5.53;2.67;;;2.60;99.90;;;;;;4976164;28;20549;-54
2020/12/23 04:09:36;;;;;;;11.33;2.83;;;2.50;99.90;;;;;;4981844;28;20169;-46
2020/12/23 04:12:02;;;;;;;6.20;2.80;;;2.40;99.90;;;;;;4976783;28;20296;-47
2020/12/23 04:14:27;;;;;;;6.87;2.33;;;2.40;99.90;;;;;;4964094;28;20179;-48
2020/12/23 04:16:53;;;;;;;3.97;1.93;;;2.30;99.90;;;;;;4978415;28;20197;-47
2020/12/23 04:19:18;;;;;;;4.97;2.60;;;2.30;99.90;;;;;;4962345;28;20742;-45
2020/12/23 04:21:44;;;;;;;5.47;2.47;;;2.30;99.90;;;;;;4971424;28;20201;-46
2020/12/23 04:24:09;;;;;;;3.90;2.57;;;2.20;99.90;;;;;;4980634;28;20189;-51
2020/12/23 04:26:35;;;;;;;5.13;2.03;;;2.30;99.90;;;;;;4977199;28;20250;-49
2020/12/23 04:29:00;;;;;;;7.23;2.37;;;2.30;99.90;;;;;;4973009;28;20181;-48
2020/12/23 04:31:26;;;;;;;21.33;3.40;;;2.40;99.90;;;;;;4970641;28;20820;-46
2020/12/23 04:33:51;;;;;;;24.23;3.70;;;2.40;99.90;;;;;;4971193;28;20221;-45
2020/12/23 04:36:16;;;;;;;15.03;2.90;;;2.40;99.90;;;;;;4964343;28;20680;-54
2020/12/23 04:38:42;;;;;;;44.60;3.87;;;2.50;99.90;;;;;;4975035;28;20875;-47
2020/12/23 04:41:07;;;;;;;37.23;3.37;;;2.50;99.90;;;;;;4982815;28;20185;-50
2020/12/23 04:43:33;;;;;;;30.27;3.90;;;2.50;99.90;;;;;;4973050;28;20194;-45
2020/12/23 04:46:01;;;;;;;28.63;3.77;;;2.50;99.90;;;;;;4982804;28;20235;-50
2020/12/23 04:48:31;;;;;;;46.60;4.10;;;2.60;99.90;;;;;;4972887;28;20812;-49
2020/12/23 04:50:56;;;;;;;14.10;3.37;;;2.60;99.90;;;;;;4967630;28;20201;-50
2020/12/23 04:53:23;;;;;;;36.23;3.93;;;2.70;99.90;;;;;;4969284;28;20192;-53
2020/12/23 04:55:49;;;;;;;27.00;3.73;;;2.80;99.90;;;;;;4967654;28;20184;-47
2020/12/23 04:58:15;;;;;;;47.57;4.00;;;2.80;99.90;;;;;;4976383;28;20232;-56
2020/12/23 05:00:40;;;;;;;17.20;3.13;;;2.80;99.90;;;;;;4963436;28;20869;-45
2020/12/23 05:03:05;;;;;;;45.93;4.10;;;2.80;99.90;;;;;;4973065;28;20247;-51
2020/12/23 05:05:31;;;;;;;35.50;4.73;;;2.80;99.90;;;;;;4976395;28;20217;-47
2020/12/23 05:07:57;;;;;;;42.87;3.87;;;2.80;99.90;;;;;;4958902;28;20646;-51
2020/12/23 05:10:27;;;;;;;30.83;3.60;;;2.80;99.90;;;;;;4966332;28;20181;-51
2020/12/23 05:12:53;;;;;;;37.27;4.30;;;2.80;99.90;;;;;;4975575;28;20225;-48
2020/12/23 05:15:18;;;;;;;40.17;3.77;;;2.80;99.90;;;;;;4975159;28;20178;-53
2020/12/23 05:17:45;;;;;;;16.90;3.67;;;2.90;99.90;;;;;;4980022;28;20185;-44
2020/12/23 05:20:11;;;;;;;47.80;4.17;;;2.90;99.90;;;;;;4976620;28;20185;-50
2020/12/23 05:22:36;;;;;;;30.10;4.60;;;3.00;99.90;;;;;;4966074;28;20213;-49
2020/12/23 05:25:03;;;;;;;36.73;4.77;;;3.00;99.90;;;;;;4983907;28;20237;-48
2020/12/23 05:27:32;;;;;;;46.47;4.17;;;3.00;99.90;;;;;;4971879;28;20167;-50
2020/12/23 05:29:58;;;;;;;34.77;4.13;;;3.10;99.90;;;;;;4966140;28;20177;-45
2020/12/23 05:32:25;;;;;;;15.67;3.60;;;3.10;99.90;;;;;;4971449;28;20217;-47
2020/12/23 05:34:51;;;;;;;32.90;4.07;;;3.10;99.90;;;;;;4977555;28;20260;-52
2020/12/23 05:37:20;;;;;;;32.73;5.10;;;3.10;99.90;;;;;;4976166;28;20185;-45
2020/12/23 05:39:46;;;;;;;72.20;5.37;;;3.10;99.90;;;;;;4961265;28;20219;-52
2020/12/23 05:42:14;;;;;;;66.00;5.53;;;3.20;99.90;;;;;;4972699;28;20204;-48
2020/12/23 05:44:40;;;;;;;71.30;6.83;;;3.20;99.90;;;;;;4975018;28;20213;-47
2020/12/23 05:47:05;;;;;;;76.50;6.23;;;3.30;99.90;;;;;;4963689;28;20925;-46
2020/12/23 05:49:38;;;;;;;45.33;6.20;;;3.40;99.90;;;;;;4977864;28;20272;-44
2020/12/23 05:52:04;;;;;;;52.43;6.30;;;3.40;99.90;;;;;;4968570;28;20213;-51
2020/12/23 05:54:30;;;;;;;47.47;5.73;;;3.40;99.90;;;;;;4970319;28;20185;-45
2020/12/23 05:56:55;;;;;;;53.27;6.10;;;3.30;99.90;;;;;;4972944;28;20178;-54
2020/12/23 05:59:21;;;;;;;34.37;6.07;;;3.40;99.90;;;;;;4965915;28;20367;-50
2020/12/23 06:01:49;;;;;;;65.13;6.00;;;3.40;99.90;;;;;;4977271;28;20252;-49
2020/12/23 06:04:15;;;;;;;56.43;5.93;;;3.40;99.90;;;;;;4972194;28;20319;-49
2020/12/23 06:06:45;;;;;;;25.37;5.33;;;3.40;99.90;;;;;;4974847;28;20187;-48
2020/12/23 06:09:15;;;;;;;31.40;5.07;;;3.40;99.90;;;;;;4960962;28;20356;-48
2020/12/23 06:11:47;;;;;;;45.27;6.00;;;3.50;99.90;;;;;;4973515;28;20226;-48
2020/12/23 06:14:25;;;;;;;29.47;6.90;;;3.50;99.90;;;;;;4976348;28;20791;-54
2020/12/23 06:16:56;;;;;;;46.77;6.17;;;3.50;99.90;;;;;;4982165;28;20188;-46
2020/12/23 06:19:28;;;;;;;79.90;9.03;;;3.60;99.90;;;;;;4972405;28;20182;-49
2020/12/23 06:21:58;;;;;;;93.90;7.97;;;3.60;99.90;;;;;;4967111;28;20610;-46
2020/12/23 06:24:25;;;;;;;84.17;8.70;;;3.60;99.90;;;;;;4964869;28;20424;-52
2020/12/23 06:26:54;;;;;;;120.73;9.27;;;3.60;99.90;;;;;;4973477;28;20197;-48
2020/12/23 06:29:23;;;;;;;86.70;7.63;;;3.60;99.90;;;;;;4968064;28;20463;-48
2020/12/23 06:32:08;;;;;;;73.10;7.07;;;3.60;99.90;;;;;;4979693;28;20194;-51
2020/12/23 06:34:37;;;;;;;67.90;6.83;;;3.60;99.90;;;;;;4982294;28;20524;-45
2020/12/23 06:37:16;;;;;;;54.13;6.43;;;3.60;99.90;;;;;;4976924;28;20224;-53
2020/12/23 06:39:42;;;;;;;44.77;6.27;;;3.60;99.90;;;;;;4980649;28;20232;-44
2020/12/23 06:42:08;;;;;;;91.37;7.27;;;3.60;99.90;;;;;;4959012;28;20217;-45
2020/12/23 06:44:42;;;;;;;74.03;7.57;;;3.50;99.90;;;;;;4978354;28;20198;-47
2020/12/23 06:47:11;;;;;;;56.50;6.67;;;3.50;99.90;;;;;;4977027;28;20272;-46
2020/12/23 06:49:37;;;;;;;56.53;5.10;;;3.40;99.90;;;;;;4977563;28;20208;-44
2020/12/23 06:52:21;;;;;;;64.27;6.20;;;3.40;99.90;;;;;;4977880;28;20202;-56
2020/12/23 06:54:55;;;;;;;63.13;6.50;;;3.50;99.90;;;;;;4972969;28;20197;-54
2020/12/23 06:57:35;;;;;;;42.87;5.13;;;3.40;99.90;;;;;;4964259;28;20258;-47
2020/12/23 07:00:06;;;;;;;38.83;5.47;;;3.40;99.90;;;;;;4974852;28;20265;-52
2020/12/23 07:02:32;;;;;;;35.20;4.93;;;3.40;99.90;;;;;;4967385;28;20229;-44
2020/12/23 07:04:59;;;;;;;47.30;5.57;;;3.40;99.90;;;;;;4966533;28;20284;-51
2020/12/23 07:07:41;;;;;;;31.40;6.03;;;3.30;99.90;;;;;;4977601;28;20188;-47
2020/12/23 07:10:14;;;;;;;30.70;5.37;;;3.30;99.90;;;;;;4962277;28;20257;-47
2020/12/23 07:12:49;;;;;;;31.67;5.20;;;3.20;99.90;;;;;;4966618;28;20217;-44
2020/12/23 07:15:24;;;;;;;19.13;5.13;;;3.20;99.90;;;;;;4972405;28;20170;-49
2020/12/23 07:17:56;;;;;;;50.93;6.07;;;3.10;99.90;;;;;;4973792;28;20679;-51
2020/12/23 07:20:23;;;;;;;44.03;5.73;;;3.00;99.90;;;;;;4967503;28;20189;-47
2020/12/23 07:22:53;;;;;;;41.10;8.50;;;3.00;99.90;;;;;;4972854;28;20218;-48
2020/12/23 07:25:24;;;;;;;10.63;5.13;;;3.10;99.90;;;;;;4974341;28;20216;-45
2020/12/23 07:27:58;;;;;;;52.07;6.73;;;3.10;99.90;;;;;;4964289;28;20196;-51
2020/12/23 07:30:24;;;;;;;25.50;5.40;;;3.00;99.90;;;;;;4974739;28;20227;-45
2020/12/23 07:33:12;;;;;;;35.17;5.90;;;3.00;99.90;;;;;;4974511;28;20241;-53
2020/12/23 07:35:38;;;;;;;16.13;5.13;;;2.90;99.90;;;;;;4985793;28;20264;-45
2020/12/23 07:38:06;;;;;;;25.60;5.27;;;2.90;99.90;;;;;;4968069;28;20580;-50
2020/12/23 07:40:33;;;;;;;36.50;5.97;;;2.90;99.90;;;;;;4972747;28;20189;-49
2020/12/23 07:42:59;;;;;;;22.40;4.97;;;2.90;99.90;;;;;;4958021;28;20197;-49
2020/12/23 07:45:26;;;;;;;20.37;5.40;;;2.90;99.90;;;;;;4976671;28;20208;-50
2020/12/23 07:47:57;;;;;;;23.90;5.70;;;2.90;99.90;;;;;;4975395;28;20712;-51
2020/12/23 07:50:24;;;;;;;35.50;6.13;;;2.90;99.90;;;;;;4985769;28;20176;-49
2020/12/23 07:52:50;;;;;;;18.90;5.83;;;2.90;99.90;;;;;;4976140;28;20205;-50
2020/12/23 07:55:18;;;;;;;44.67;6.70;;;2.90;99.90;;;;;;4978573;28;20252;-45
2020/12/23 07:57:44;;;;;;;50.20;6.00;;;2.90;99.90;;;;;;4972762;28;20283;-51
2020/12/23 08:00:12;;;;;;;97.27;8.03;;;2.90;99.90;;;;;;4971699;28;20197;-46
2020/12/23 08:02:38;;;;;;;30.97;5.83;;;2.90;99.90;;;;;;4973661;28;20232;-47
2020/12/23 08:05:05;;;;;;;51.07;6.13;;;3.00;99.90;;;;;;4975667;28;20276;-49
2020/12/23 08:07:31;;;;;;;56.43;6.27;;;3.00;99.90;;;;;;4966096;28;20178;-54
2020/12/23 08:10:08;;;;;;;46.33;5.27;;;3.00;99.90;;;;;;4978771;28;20665;-44
2020/12/23 08:12:35;;;;;;;38.67;5.53;;;3.00;99.90;;;;;;4974541;28;20209;-46
2020/12/23 08:15:07;;;;;;;48.40;6.10;;;2.90;99.90;;;;;;4968167;28;20217;-47
2020/12/23 08:17:32;;;;;;;43.57;7.70;;;2.90;99.90;;;;;;4969780;28;20190;-49
2020/12/23 08:20:07;;;;;;;40.37;5.37;;;2.90;99.90;;;;;;4965298;28;20185;-49
2020/12/23 08:22:34;;;;;;;46.20;5.97;;;2.90;99.90;;;;;;4960773;28;20203;-52
2020/12/23 08:25:05;;;;;;;71.87;6.07;;;2.80;99.90;;;;;;4973278;28;20205;-44
2020/12/23 08:27:32;;;;;;;56.33;6.33;;;2.80;99.90;;;;;;4960496;28;20236;-51
2020/12/23 08:30:00;;;;;;;88.03;7.07;;;2.80;99.90;;;;;;4971548;28;20196;-45
2020/12/23 08:32:33;;;;;;;25.50;4.73;;;2.80;99.90;;;;;;4974154;28;20292;-53
2020/12/23 08:35:00;;;;;;;32.90;5.17;;;2.80;99.90;;;;;;4973763;28;20283;-51
2020/12/23 08:37:25;;;;;;;61.37;6.33;;;2.90;99.90;;;;;;4982746;28;20199;-48
2020/12/23 08:39:58;;;;;;;59.30;6.00;;;2.90;99.90;;;;;;4975635;28;20201;-53
2020/12/23 08:42:24;;;;;;;78.87;6.20;;;2.90;99.90;;;;;;4979640;28;20248;-44
2020/12/23 08:44:53;;;;;;;103.57;7.43;;;2.90;99.90;;;;;;4969952;28;20701;-52
2020/12/23 08:47:33;;;;;;;66.77;6.30;;;2.90;99.90;;;;;;4969807;28;20268;-46
2020/12/23 08:49:59;;;;;;;58.57;6.37;;;2.80;99.90;;;;;;4977849;28;20645;-49
2020/12/23 08:52:26;;;;;;;56.10;6.07;;;2.80;99.90;;;;;;4981418;28;20212;-48
2020/12/23 08:54:52;;;;;;;77.97;6.47;;;2.80;99.90;;;;;;4967871;28;20197;-51
2020/12/23 08:57:25;;;;;;;85.90;7.50;;;2.80;99.90;;;;;;4974122;28;20188;-44
2020/12/23 08:59:52;;;;;;;82.73;6.97;;;2.80;99.90;;;;;;4968954;28;20224;-53
2020/12/23 09:02:18;;;;;;;60.73;6.47;;;2.80;99.90;;;;;;4977856;28;20343;-44
2020/12/23 09:04:44;;;;;;;74.07;7.37;;;2.80;99.90;;;;;;4983315;28;20193;-54
2020/12/23 09:07:10;;;;;;;44.43;6.43;;;2.80;99.90;;;;;;4980950;28;21048;-45
2020/12/23 09:09:36;;;;;;;66.13;7.53;;;2.80;99.90;;;;;;4983339;28;20256;-49
2020/12/23 09:12:04;;;;;;;66.20;7.70;;;2.80;99.90;;;;;;4972042;28;20260;-47
2020/12/23 09:14:40;;;;;;;93.00;8.63;;;2.70;99.90;;;;;;4984138;28;20228;-48
2020/12/23 09:17:24;;;;;;;67.13;7.93;;;2.70;99.90;;;;;;4962421;28;20877;-45
2020/12/23 09:19:58;;;;;;;73.47;7.53;;;2.70;99.90;;;;;;4970704;28;20174;-46
2020/12/23 09:22:31;;;;;;;94.93;8.77;;;2.70;99.90;;;;;;4969982;28;20203;-48
2020/12/23 09:25:21;;;;;;;105.37;9.27;;;2.70;99.90;;;;;;4972193;28;20193;-48
2020/12/23 09:27:54;;;;;;;51.97;8.00;;;2.80;99.90;;;;;;4982590;28;20184;-49
2020/12/23 09:30:31;;;;;;;104.60;10.13;;;2.90;99.90;;;;;;4983573;28;20584;-46
2020/12/23 09:32:56;;;;;;;110.57;10.23;;;2.90;99.90;;;;;;4956118;28;20241;-45
2020/12/23 09:35:24;;;;;;;87.57;8.67;;;3.00;99.90;;;;;;4980233;28;20213;-47
2020/12/23 09:38:04;;;;;;;108.90;9.67;;;3.00;99.90;;;;;;4973835;28;20542;-53
2020/12/23 09:40:29;;;;;;;74.63;7.63;;;3.00;99.90;;;;;;4984326;28;20271;-47
2020/12/23 09:42:55;;;;;;;71.60;8.53;;;3.10;99.90;;;;;;4980847;28;20709;-49
2020/12/23 09:45:21;;;;;;;75.33;8.63;;;3.10;99.90;;;;;;4982910;28;20660;-53
2020/12/23 09:47:46;;;;;;;89.50;11.17;;;3.20;99.90;;;;;;4967560;28;20189;-48
2020/12/23 09:50:11;;;;;;;71.20;8.30;;;3.20;99.90;;;;;;4975408;28;20174;-50
2020/12/23 09:52:37;;;;;;;47.43;7.90;;;3.20;99.90;;;;;;4964898;28;20208;-52
2020/12/23 09:55:04;;;;;;;73.80;7.87;;;3.20;99.90;;;;;;4963097;28;20737;-51
2020/12/23 09:57:29;;;;;;;61.73;7.43;;;3.30;99.90;;;;;;4968937;28;20182;-51
2020/12/23 09:59:55;;;;;;;68.80;8.27;;;3.30;99.90;;;;;;4961647;28;20182;-47
2020/12/23 10:02:20;;;;;;;27.50;7.03;;;3.30;99.90;;;;;;4974984;28;20298;-45
2020/12/23 10:04:45;;;;;;;56.73;7.67;;;3.40;99.90;;;;;;4965492;28;20267;-46
2020/12/23 10:07:11;;;;;;;52.40;7.20;;;3.40;99.90;;;;;;4980465;28;20525;-47
2020/12/23 10:09:36;;;;;;;34.00;7.30;;;3.40;99.90;;;;;;4985260;28;20216;-52
2020/12/23 10:12:02;;;;;;;41.17;7.40;;;3.50;99.90;;;;;;4988575;28;20281;-49
2020/12/23 10:14:28;;;;;;;39.53;7.03;;;3.50;99.90;;;;;;4992857;28;20221;-50
2020/12/23 10:16:53;;;;;;;34.17;6.67;;;3.60;99.90;;;;;;4980677;28;20186;-49
2020/12/23 10:19:19;;;;;;;22.47;6.93;;;3.70;99.90;;;;;;4968852;28;20186;-45
2020/12/23 10:21:44;;;;;;;25.37;7.33;;;3.70;99.90;;;;;;4976452;28;20201;-51
2020/12/23 10:24:10;;;;;;;36.07;7.00;;;3.70;99.90;;;;;;4980523;28;20192;-47
2020/12/23 10:26:35;;;;;;;33.40;7.10;;;3.80;99.90;;;;;;4979569;28;20267;-50
2020/12/23 10:29:01;;;;;;;36.50;7.37;;;3.80;99.90;;;;;;4981262;28;20874;-50
2020/12/23 10:31:26;;;;;;;21.03;6.90;;;3.90;99.90;;;;;;4975494;28;20279;-54
2020/12/23 10:33:51;;;;;;;28.27;6.80;;;3.90;99.90;;;;;;4966212;28;20296;-50
2020/12/23 10:36:17;;;;;;;25.93;8.13;;;3.90;99.90;;;;;;4982831;28;20217;-48
2020/12/23 10:38:43;;;;;;;24.50;7.67;;;4.00;99.90;;;;;;4983299;28;20178;-51
2020/12/23 10:41:10;;;;;;;18.80;7.27;;;4.00;99.90;;;;;;4981796;28;20185;-49
2020/12/23 10:43:35;;;;;;;28.90;7.43;;;4.10;99.90;;;;;;4971711;28;20526;-53
2020/12/23 10:46:01;;;;;;;34.67;7.47;;;4.20;99.90;;;;;;4975411;28;20205;-49
2020/12/23 10:48:26;;;;;;;25.23;7.47;;;4.20;99.90;;;;;;4979227;28;20201;-49
2020/12/23 10:50:52;;;;;;;11.97;7.70;;;4.30;99.90;;;;;;4967125;28;20198;-51
2020/12/23 10:53:17;;;;;;;17.60;8.10;;;4.30;99.90;;;;;;4990614;28;20189;-49
2020/12/23 10:55:43;;;;;;;20.57;8.37;;;4.40;99.90;;;;;;4985951;28;20190;-49
2020/12/23 10:58:08;;;;;;;11.67;6.93;;;4.40;99.90;;;;;;4973478;28;20437;-52
2020/12/23 11:00:34;;;;;;;11.07;7.70;;;4.50;99.90;;;;;;4969644;28;20193;-48
2020/12/23 11:02:59;;;;;;;17.23;7.37;;;4.50;99.90;;;;;;4972865;28;20236;-51
2020/12/23 11:05:25;;;;;;;14.63;7.73;;;4.50;99.90;;;;;;4959497;28;20213;-44
2020/12/23 11:07:52;;;;;;;11.03;7.27;;;4.50;99.90;;;;;;4979090;28;20193;-46
2020/12/23 11:10:18;;;;;;;25.63;7.70;;;4.60;99.90;;;;;;4979150;28;20181;-45
2020/12/23 11:12:46;;;;;;;16.50;8.00;;;4.60;99.90;;;;;;4981426;28;20247;-47
2020/12/23 11:15:11;;;;;;;15.07;7.97;;;4.60;99.90;;;;;;4972500;28;20661;-52
2020/12/23 11:17:37;;;;;;;27.80;8.20;;;4.60;99.90;;;;;;4974910;28;20188;-46
2020/12/23 11:20:02;;;;;;;14.17;7.93;;;4.60;99.90;;;;;;4970875;28;20654;-50
2020/12/23 11:22:28;;;;;;;16.27;8.30;;;4.70;99.90;;;;;;4982705;28;20221;-48
2020/12/23 11:24:53;;;;;;;18.03;9.13;;;4.70;99.90;;;;;;4986181;28;20189;-53
2020/12/23 11:27:19;;;;;;;13.53;8.60;;;4.70;99.90;;;;;;4980565;28;20782;-48
2020/12/23 11:29:44;;;;;;;15.30;8.47;;;4.70;99.90;;;;;;4973348;28;20217;-46
2020/12/23 11:32:10;;;;;;;10.30;7.30;;;4.70;99.90;;;;;;4975428;28;20214;-52
2020/12/23 11:34:35;;;;;;;14.77;8.00;;;4.70;99.90;;;;;;4973732;28;20178;-44
2020/12/23 11:37:01;;;;;;;15.67;8.37;;;4.70;99.90;;;;;;4969132;28;20588;-50
2020/12/23 11:39:28;;;;;;;16.87;8.13;;;4.70;99.90;;;;;;4979580;28;20906;-48
2020/12/23 11:41:57;;;;;;;13.17;7.67;;;4.70;99.90;;;;;;4968354;28;20197;-51
2020/12/23 11:44:23;;;;;;;13.70;7.13;;;4.80;99.90;;;;;;4977196;28;20182;-47
2020/12/23 11:46:49;;;;;;;12.23;7.43;;;4.80;99.90;;;;;;4975129;28;20240;-46
2020/12/23 11:49:16;;;;;;;12.27;7.03;;;4.80;99.90;;;;;;4965183;28;20193;-46
2020/12/23 11:51:41;;;;;;;12.97;7.27;;;4.90;99.90;;;;;;4965567;28;20201;-48
2020/12/23 11:54:07;;;;;;;13.10;7.53;;;4.90;99.90;;;;;;4981192;28;20587;-47
2020/12/23 11:56:34;;;;;;;14.20;7.33;;;5.00;99.90;;;;;;4979770;28;20594;-45
2020/12/23 11:58:59;;;;;;;11.90;7.13;;;5.00;99.90;;;;;;4977465;28;20185;-50
2020/12/23 12:01:25;;;;;;;8.87;6.43;;;5.00;99.90;;;;;;4970307;28;20206;-49
2020/12/23 12:03:50;;;;;;;11.60;6.67;;;5.10;99.90;;;;;;4972607;28;20643;-47
2020/12/23 12:06:20;;;;;;;14.87;7.33;;;5.10;99.90;;;;;;4958250;28;20205;-46
2020/12/23 12:08:46;;;;;;;15.27;7.57;;;5.20;99.90;;;;;;4976197;28;20182;-47
2020/12/23 12:11:14;;;;;;;14.03;7.63;;;5.20;99.90;;;;;;4976598;28;20201;-51
2020/12/23 12:13:40;;;;;;;12.73;7.67;;;5.20;99.90;;;;;;4972274;28;20595;-46
2020/12/23 12:16:06;;;;;;;16.73;8.53;;;5.10;99.90;;;;;;4955754;28;20248;-48
2020/12/23 12:18:31;;;;;;;14.17;8.57;;;5.20;99.90;;;;;;4968780;28;20245;-45
2020/12/23 12:20:57;;;;;;;13.73;8.33;;;5.10;99.90;;;;;;4965053;28;20200;-51
2020/12/23 12:23:22;;;;;;;15.23;8.63;;;5.10;99.90;;;;;;4971961;28;20249;-49
2020/12/23 12:25:48;;;;;;;11.17;7.53;;;5.20;99.90;;;;;;4975357;28;20217;-45
2020/12/23 12:28:13;;;;;;;11.97;7.37;;;5.20;99.90;;;;;;4973585;28;20196;-44
2020/12/23 12:30:39;;;;;;;15.43;7.37;;;5.30;99.90;;;;;;4975907;28;20174;-50
2020/12/23 12:33:05;;;;;;;10.00;7.63;;;5.30;99.90;;;;;;4965222;28;20281;-48
2020/12/23 12:35:32;;;;;;;10.43;6.80;;;5.30;99.90;;;;;;4974847;28;20269;-46
2020/12/23 12:37:57;;;;;;;10.70;7.40;;;5.30;99.90;;;;;;4957381;28;20197;-46
2020/12/23 12:40:23;;;;;;;12.93;9.30;;;5.40;99.90;;;;;;4970254;28;20194;-49
2020/12/23 12:42:48;;;;;;;11.10;6.87;;;5.40;99.90;;;;;;4977386;28;20688;-47
2020/12/23 12:45:14;;;;;;;14.90;7.60;;;5.40;99.90;;;;;;4976404;28;20208;-50
2020/12/23 12:47:42;;;;;;;17.67;8.40;;;5.40;99.90;;;;;;4974175;28;20264;-46
2020/12/23 12:50:08;;;;;;;10.10;6.30;;;5.40;99.90;;;;;;4978768;28;20170;-49